sensor_id;sensor_type;location;lat;lon;timestamp;P1;durP1;ratioP1;P2;durP2;ratioP2
72095;SDS011;59968;51.084;16.748;2024-03-08T00:02:09;33.50;;;13.60;;
72095;SDS011;59968;51.084;16.748;2024-03-08T00:04:38;35.40;;;14.20;;
72095;SDS011;59968;51.084;16.748;2024-03-08T00:07:09;35.50;;;14.20;;
72095;SDS011;59968;51.084;16.748;2024-03-08T00:09:38;36.40;;;16.40;;
72095;SDS011;59968;51.084;16.748;2024-03-08T00:12:07;32.30;;;14.30;;
72095;SDS011;59968;51.084;16.748;2024-03-08T00:14:37;35.10;;;15.80;;
72095;SDS011;59968;51.084;16.748;2024-03-08T00:17:05;36.40;;;16.80;;
72095;SDS011;59968;51.084;16.748;2024-03-08T00:19:34;36.30;;;15.60;;
72095;SDS011;59968;51.084;16.748;2024-03-08T00:22:03;37.60;;;16.40;;
72095;SDS011;59968;51.084;16.748;2024-03-08T00:24:33;37.00;;;15.90;;
72095;SDS011;59968;51.084;16.748;2024-03-08T00:27:02;36.90;;;16.20;;
72095;SDS011;59968;51.084;16.748;2024-03-08T00:29:31;36.60;;;15.30;;
72095;SDS011;59968;51.084;16.748;2024-03-08T00:32:00;44.30;;;19.30;;
72095;SDS011;59968;51.084;16.748;2024-03-08T00:34:29;37.80;;;17.30;;
72095;SDS011;59968;51.084;16.748;2024-03-08T00:36:57;39.40;;;15.80;;
72095;SDS011;59968;51.084;16.748;2024-03-08T00:39:27;35.40;;;14.70;;
72095;SDS011;59968;51.084;16.748;2024-03-08T00:41:56;33.00;;;14.90;;
72095;SDS011;59968;51.084;16.748;2024-03-08T00:44:25;32.00;;;14.10;;
72095;SDS011;59968;51.084;16.748;2024-03-08T00:46:54;34.60;;;15.00;;
72095;SDS011;59968;51.084;16.748;2024-03-08T00:49:23;31.00;;;14.10;;
72095;SDS011;59968;51.084;16.748;2024-03-08T00:51:51;32.80;;;14.30;;
72095;SDS011;59968;51.084;16.748;2024-03-08T00:54:20;34.40;;;14.40;;
72095;SDS011;59968;51.084;16.748;2024-03-08T00:56:49;32.80;;;14.40;;
72095;SDS011;59968;51.084;16.748;2024-03-08T00:59:18;31.00;;;14.50;;
72095;SDS011;59968;51.084;16.748;2024-03-08T01:01:46;30.70;;;13.80;;
72095;SDS011;59968;51.084;16.748;2024-03-08T01:04:15;31.00;;;14.20;;
72095;SDS011;59968;51.084;16.748;2024-03-08T01:06:44;34.20;;;14.70;;
72095;SDS011;59968;51.084;16.748;2024-03-08T01:09:15;32.90;;;14.60;;
72095;SDS011;59968;51.084;16.748;2024-03-08T01:11:45;28.40;;;13.60;;
72095;SDS011;59968;51.084;16.748;2024-03-08T01:14:14;31.70;;;14.50;;
72095;SDS011;59968;51.084;16.748;2024-03-08T01:16:43;30.70;;;13.80;;
72095;SDS011;59968;51.084;16.748;2024-03-08T01:19:12;32.60;;;14.10;;
72095;SDS011;59968;51.084;16.748;2024-03-08T01:21:41;33.00;;;14.10;;
72095;SDS011;59968;51.084;16.748;2024-03-08T01:24:10;34.70;;;14.70;;
72095;SDS011;59968;51.084;16.748;2024-03-08T01:26:39;34.20;;;14.50;;
72095;SDS011;59968;51.084;16.748;2024-03-08T01:29:08;35.70;;;14.40;;
72095;SDS011;59968;51.084;16.748;2024-03-08T01:31:36;28.20;;;13.40;;
72095;SDS011;59968;51.084;16.748;2024-03-08T01:34:05;31.00;;;13.80;;
72095;SDS011;59968;51.084;16.748;2024-03-08T01:36:33;34.30;;;15.10;;
72095;SDS011;59968;51.084;16.748;2024-03-08T01:39:02;34.10;;;14.00;;
72095;SDS011;59968;51.084;16.748;2024-03-08T01:41:36;34.40;;;14.50;;
72095;SDS011;59968;51.084;16.748;2024-03-08T01:44:06;32.60;;;14.60;;
72095;SDS011;59968;51.084;16.748;2024-03-08T01:46:35;31.90;;;13.90;;
72095;SDS011;59968;51.084;16.748;2024-03-08T01:49:04;33.40;;;13.80;;
72095;SDS011;59968;51.084;16.748;2024-03-08T01:51:33;33.00;;;14.00;;
72095;SDS011;59968;51.084;16.748;2024-03-08T01:54:02;31.70;;;14.10;;
72095;SDS011;59968;51.084;16.748;2024-03-08T01:56:33;34.90;;;14.50;;
72095;SDS011;59968;51.084;16.748;2024-03-08T01:59:01;33.40;;;15.20;;
72095;SDS011;59968;51.084;16.748;2024-03-08T02:01:34;38.50;;;16.60;;
72095;SDS011;59968;51.084;16.748;2024-03-08T02:04:03;39.70;;;16.40;;
72095;SDS011;59968;51.084;16.748;2024-03-08T02:06:34;34.80;;;14.50;;
72095;SDS011;59968;51.084;16.748;2024-03-08T02:09:03;37.40;;;15.80;;
72095;SDS011;59968;51.084;16.748;2024-03-08T02:11:35;32.80;;;14.10;;
72095;SDS011;59968;51.084;16.748;2024-03-08T02:14:05;33.50;;;14.10;;
72095;SDS011;59968;51.084;16.748;2024-03-08T02:16:34;37.80;;;14.20;;
72095;SDS011;59968;51.084;16.748;2024-03-08T02:19:03;36.20;;;15.40;;
72095;SDS011;59968;51.084;16.748;2024-03-08T02:21:32;35.60;;;14.50;;
72095;SDS011;59968;51.084;16.748;2024-03-08T02:24:02;37.60;;;15.10;;
72095;SDS011;59968;51.084;16.748;2024-03-08T02:26:32;34.80;;;14.60;;
72095;SDS011;59968;51.084;16.748;2024-03-08T02:29:01;33.30;;;14.20;;
72095;SDS011;59968;51.084;16.748;2024-03-08T02:31:31;31.80;;;13.40;;
72095;SDS011;59968;51.084;16.748;2024-03-08T02:34:00;34.60;;;15.50;;
72095;SDS011;59968;51.084;16.748;2024-03-08T02:36:28;40.20;;;16.40;;
72095;SDS011;59968;51.084;16.748;2024-03-08T02:38:57;34.20;;;14.90;;
72095;SDS011;59968;51.084;16.748;2024-03-08T02:41:26;38.30;;;15.10;;
72095;SDS011;59968;51.084;16.748;2024-03-08T02:43:55;36.70;;;15.70;;
72095;SDS011;59968;51.084;16.748;2024-03-08T02:46:24;38.10;;;15.20;;
72095;SDS011;59968;51.084;16.748;2024-03-08T02:48:53;35.90;;;15.00;;
72095;SDS011;59968;51.084;16.748;2024-03-08T02:51:21;34.50;;;14.80;;
72095;SDS011;59968;51.084;16.748;2024-03-08T02:53:50;35.10;;;15.10;;
72095;SDS011;59968;51.084;16.748;2024-03-08T02:56:20;35.30;;;14.90;;
72095;SDS011;59968;51.084;16.748;2024-03-08T02:58:50;34.80;;;14.20;;
72095;SDS011;59968;51.084;16.748;2024-03-08T03:01:19;35.10;;;15.10;;
72095;SDS011;59968;51.084;16.748;2024-03-08T03:03:48;34.50;;;15.70;;
72095;SDS011;59968;51.084;16.748;2024-03-08T03:06:17;36.40;;;15.60;;
72095;SDS011;59968;51.084;16.748;2024-03-08T03:08:52;40.30;;;17.30;;
72095;SDS011;59968;51.084;16.748;2024-03-08T03:11:25;36.40;;;15.50;;
72095;SDS011;59968;51.084;16.748;2024-03-08T03:13:57;39.90;;;16.30;;
72095;SDS011;59968;51.084;16.748;2024-03-08T03:16:32;39.20;;;16.90;;
72095;SDS011;59968;51.084;16.748;2024-03-08T03:19:00;34.80;;;14.50;;
72095;SDS011;59968;51.084;16.748;2024-03-08T03:21:34;35.20;;;14.70;;
72095;SDS011;59968;51.084;16.748;2024-03-08T03:24:09;35.10;;;15.00;;
72095;SDS011;59968;51.084;16.748;2024-03-08T03:26:38;34.30;;;15.20;;
72095;SDS011;59968;51.084;16.748;2024-03-08T03:29:09;34.30;;;14.60;;
72095;SDS011;59968;51.084;16.748;2024-03-08T03:31:39;34.00;;;14.70;;
72095;SDS011;59968;51.084;16.748;2024-03-08T03:34:11;38.60;;;16.60;;
72095;SDS011;59968;51.084;16.748;2024-03-08T03:36:42;41.70;;;16.20;;
72095;SDS011;59968;51.084;16.748;2024-03-08T03:39:17;38.20;;;16.00;;
72095;SDS011;59968;51.084;16.748;2024-03-08T03:41:50;37.40;;;17.00;;
72095;SDS011;59968;51.084;16.748;2024-03-08T03:44:23;41.60;;;16.60;;
72095;SDS011;59968;51.084;16.748;2024-03-08T03:46:56;41.30;;;17.00;;
72095;SDS011;59968;51.084;16.748;2024-03-08T03:49:27;36.80;;;15.90;;
72095;SDS011;59968;51.084;16.748;2024-03-08T03:52:00;39.30;;;18.60;;
72095;SDS011;59968;51.084;16.748;2024-03-08T03:54:32;36.70;;;14.70;;
72095;SDS011;59968;51.084;16.748;2024-03-08T03:57:04;36.50;;;14.90;;
72095;SDS011;59968;51.084;16.748;2024-03-08T03:59:36;38.10;;;15.20;;
72095;SDS011;59968;51.084;16.748;2024-03-08T04:02:08;39.50;;;16.40;;
72095;SDS011;59968;51.084;16.748;2024-03-08T04:04:45;38.20;;;16.20;;
72095;SDS011;59968;51.084;16.748;2024-03-08T04:07:23;39.30;;;16.40;;
72095;SDS011;59968;51.084;16.748;2024-03-08T04:09:55;34.50;;;15.00;;
72095;SDS011;59968;51.084;16.748;2024-03-08T04:12:32;37.40;;;15.40;;
72095;SDS011;59968;51.084;16.748;2024-03-08T04:15:17;33.60;;;15.80;;
72095;SDS011;59968;51.084;16.748;2024-03-08T04:17:49;35.10;;;15.00;;
72095;SDS011;59968;51.084;16.748;2024-03-08T04:20:17;34.80;;;14.60;;
72095;SDS011;59968;51.084;16.748;2024-03-08T04:22:49;37.80;;;15.60;;
72095;SDS011;59968;51.084;16.748;2024-03-08T04:25:18;37.60;;;16.60;;
72095;SDS011;59968;51.084;16.748;2024-03-08T04:27:50;41.90;;;16.40;;
72095;SDS011;59968;51.084;16.748;2024-03-08T04:30:26;36.10;;;15.50;;
72095;SDS011;59968;51.084;16.748;2024-03-08T04:32:56;39.00;;;15.90;;
72095;SDS011;59968;51.084;16.748;2024-03-08T04:35:28;37.60;;;16.30;;
72095;SDS011;59968;51.084;16.748;2024-03-08T04:38:05;38.90;;;14.50;;
72095;SDS011;59968;51.084;16.748;2024-03-08T04:40:43;35.60;;;14.00;;
72095;SDS011;59968;51.084;16.748;2024-03-08T04:43:15;38.80;;;15.80;;
72095;SDS011;59968;51.084;16.748;2024-03-08T04:45:51;40.60;;;16.60;;
72095;SDS011;59968;51.084;16.748;2024-03-08T04:48:19;36.00;;;15.40;;
72095;SDS011;59968;51.084;16.748;2024-03-08T04:50:49;37.00;;;15.20;;
72095;SDS011;59968;51.084;16.748;2024-03-08T04:53:20;35.10;;;14.70;;
72095;SDS011;59968;51.084;16.748;2024-03-08T04:55:49;35.80;;;15.10;;
72095;SDS011;59968;51.084;16.748;2024-03-08T04:58:18;38.20;;;15.00;;
72095;SDS011;59968;51.084;16.748;2024-03-08T05:00:49;38.10;;;14.50;;
72095;SDS011;59968;51.084;16.748;2024-03-08T05:03:25;34.80;;;14.10;;
72095;SDS011;59968;51.084;16.748;2024-03-08T05:05:54;38.40;;;15.50;;
72095;SDS011;59968;51.084;16.748;2024-03-08T05:08:28;36.80;;;15.60;;
72095;SDS011;59968;51.084;16.748;2024-03-08T05:10:56;32.00;;;14.10;;
72095;SDS011;59968;51.084;16.748;2024-03-08T05:13:32;37.30;;;15.90;;
72095;SDS011;59968;51.084;16.748;2024-03-08T05:16:07;38.70;;;15.60;;
72095;SDS011;59968;51.084;16.748;2024-03-08T05:18:39;38.80;;;15.70;;
72095;SDS011;59968;51.084;16.748;2024-03-08T05:21:16;35.70;;;14.70;;
72095;SDS011;59968;51.084;16.748;2024-03-08T05:23:52;37.80;;;15.40;;
72095;SDS011;59968;51.084;16.748;2024-03-08T05:26:42;38.90;;;16.10;;
72095;SDS011;59968;51.084;16.748;2024-03-08T05:29:18;38.80;;;15.80;;
72095;SDS011;59968;51.084;16.748;2024-03-08T05:31:51;38.10;;;15.80;;
72095;SDS011;59968;51.084;16.748;2024-03-08T05:34:29;36.90;;;14.90;;
72095;SDS011;59968;51.084;16.748;2024-03-08T05:37:02;36.50;;;15.40;;
72095;SDS011;59968;51.084;16.748;2024-03-08T05:39:33;36.20;;;15.20;;
72095;SDS011;59968;51.084;16.748;2024-03-08T05:42:08;37.20;;;15.40;;
72095;SDS011;59968;51.084;16.748;2024-03-08T05:44:43;40.20;;;16.40;;
72095;SDS011;59968;51.084;16.748;2024-03-08T05:47:18;39.10;;;15.90;;
72095;SDS011;59968;51.084;16.748;2024-03-08T05:49:47;41.40;;;17.20;;
72095;SDS011;59968;51.084;16.748;2024-03-08T05:52:16;41.60;;;16.30;;
72095;SDS011;59968;51.084;16.748;2024-03-08T05:54:48;39.40;;;16.10;;
72095;SDS011;59968;51.084;16.748;2024-03-08T05:57:19;36.90;;;15.40;;
72095;SDS011;59968;51.084;16.748;2024-03-08T05:59:54;37.40;;;16.30;;
72095;SDS011;59968;51.084;16.748;2024-03-08T06:02:27;41.80;;;16.20;;
72095;SDS011;59968;51.084;16.748;2024-03-08T06:04:56;35.90;;;14.40;;
72095;SDS011;59968;51.084;16.748;2024-03-08T06:07:27;35.80;;;15.20;;
72095;SDS011;59968;51.084;16.748;2024-03-08T06:09:56;36.80;;;15.60;;
72095;SDS011;59968;51.084;16.748;2024-03-08T06:12:29;41.50;;;15.80;;
72095;SDS011;59968;51.084;16.748;2024-03-08T06:15:05;36.60;;;15.10;;
72095;SDS011;59968;51.084;16.748;2024-03-08T06:17:37;38.00;;;14.80;;
72095;SDS011;59968;51.084;16.748;2024-03-08T06:20:09;36.50;;;15.00;;
72095;SDS011;59968;51.084;16.748;2024-03-08T06:22:53;36.00;;;14.20;;
72095;SDS011;59968;51.084;16.748;2024-03-08T06:25:25;40.30;;;16.30;;
72095;SDS011;59968;51.084;16.748;2024-03-08T06:27:54;37.40;;;15.10;;
72095;SDS011;59968;51.084;16.748;2024-03-08T06:30:28;36.50;;;15.00;;
72095;SDS011;59968;51.084;16.748;2024-03-08T06:32:59;37.90;;;15.20;;
72095;SDS011;59968;51.084;16.748;2024-03-08T06:35:28;37.40;;;16.00;;
72095;SDS011;59968;51.084;16.748;2024-03-08T06:38:00;34.30;;;14.80;;
72095;SDS011;59968;51.084;16.748;2024-03-08T06:40:29;31.90;;;12.90;;
72095;SDS011;59968;51.084;16.748;2024-03-08T06:42:59;37.00;;;15.40;;
72095;SDS011;59968;51.084;16.748;2024-03-08T06:45:37;34.10;;;14.00;;
72095;SDS011;59968;51.084;16.748;2024-03-08T06:48:08;39.40;;;15.30;;
72095;SDS011;59968;51.084;16.748;2024-03-08T06:50:38;40.10;;;16.10;;
72095;SDS011;59968;51.084;16.748;2024-03-08T06:53:07;34.00;;;14.50;;
72095;SDS011;59968;51.084;16.748;2024-03-08T06:55:40;35.50;;;14.90;;
72095;SDS011;59968;51.084;16.748;2024-03-08T06:58:11;35.70;;;14.80;;
72095;SDS011;59968;51.084;16.748;2024-03-08T07:00:43;36.40;;;15.20;;
72095;SDS011;59968;51.084;16.748;2024-03-08T07:03:15;36.90;;;16.00;;
72095;SDS011;59968;51.084;16.748;2024-03-08T07:05:46;35.90;;;14.60;;
72095;SDS011;59968;51.084;16.748;2024-03-08T07:08:18;41.10;;;15.70;;
72095;SDS011;59968;51.084;16.748;2024-03-08T07:10:47;35.00;;;14.30;;
72095;SDS011;59968;51.084;16.748;2024-03-08T07:13:17;35.10;;;14.30;;
72095;SDS011;59968;51.084;16.748;2024-03-08T07:15:46;37.00;;;15.70;;
72095;SDS011;59968;51.084;16.748;2024-03-08T07:18:19;33.80;;;14.70;;
72095;SDS011;59968;51.084;16.748;2024-03-08T07:20:51;35.10;;;15.30;;
72095;SDS011;59968;51.084;16.748;2024-03-08T07:23:20;31.90;;;13.90;;
72095;SDS011;59968;51.084;16.748;2024-03-08T07:26:08;35.10;;;13.70;;
72095;SDS011;59968;51.084;16.748;2024-03-08T07:28:43;36.70;;;15.90;;
72095;SDS011;59968;51.084;16.748;2024-03-08T07:31:12;36.90;;;15.80;;
72095;SDS011;59968;51.084;16.748;2024-03-08T07:33:55;35.00;;;14.70;;
72095;SDS011;59968;51.084;16.748;2024-03-08T07:36:28;34.90;;;15.50;;
72095;SDS011;59968;51.084;16.748;2024-03-08T07:38:59;38.40;;;14.20;;
72095;SDS011;59968;51.084;16.748;2024-03-08T07:41:28;37.80;;;15.10;;
72095;SDS011;59968;51.084;16.748;2024-03-08T07:44:01;38.20;;;15.70;;
72095;SDS011;59968;51.084;16.748;2024-03-08T07:46:33;37.60;;;15.60;;
72095;SDS011;59968;51.084;16.748;2024-03-08T07:49:06;35.60;;;15.80;;
72095;SDS011;59968;51.084;16.748;2024-03-08T07:51:37;33.20;;;15.00;;
72095;SDS011;59968;51.084;16.748;2024-03-08T07:54:07;32.30;;;13.40;;
72095;SDS011;59968;51.084;16.748;2024-03-08T07:56:38;36.30;;;16.00;;
72095;SDS011;59968;51.084;16.748;2024-03-08T07:59:10;39.90;;;16.00;;
72095;SDS011;59968;51.084;16.748;2024-03-08T08:01:43;38.20;;;16.30;;
72095;SDS011;59968;51.084;16.748;2024-03-08T08:04:19;36.10;;;15.80;;
72095;SDS011;59968;51.084;16.748;2024-03-08T08:06:56;36.50;;;15.20;;
72095;SDS011;59968;51.084;16.748;2024-03-08T08:09:26;36.10;;;15.70;;
72095;SDS011;59968;51.084;16.748;2024-03-08T08:12:05;38.20;;;15.70;;
72095;SDS011;59968;51.084;16.748;2024-03-08T08:14:38;37.60;;;16.70;;
72095;SDS011;59968;51.084;16.748;2024-03-08T08:17:07;38.40;;;16.10;;
72095;SDS011;59968;51.084;16.748;2024-03-08T08:19:36;33.80;;;16.20;;
72095;SDS011;59968;51.084;16.748;2024-03-08T08:22:06;41.20;;;17.50;;
72095;SDS011;59968;51.084;16.748;2024-03-08T08:24:37;39.70;;;17.70;;
72095;SDS011;59968;51.084;16.748;2024-03-08T08:27:07;38.20;;;16.70;;
72095;SDS011;59968;51.084;16.748;2024-03-08T08:29:37;41.80;;;18.10;;
72095;SDS011;59968;51.084;16.748;2024-03-08T08:32:06;42.30;;;17.10;;
72095;SDS011;59968;51.084;16.748;2024-03-08T08:34:35;43.50;;;18.20;;
72095;SDS011;59968;51.084;16.748;2024-03-08T08:37:04;40.70;;;17.60;;
72095;SDS011;59968;51.084;16.748;2024-03-08T08:39:39;43.00;;;20.00;;
72095;SDS011;59968;51.084;16.748;2024-03-08T08:42:08;42.00;;;18.30;;
72095;SDS011;59968;51.084;16.748;2024-03-08T08:44:42;41.50;;;18.40;;
72095;SDS011;59968;51.084;16.748;2024-03-08T08:47:11;41.20;;;17.80;;
72095;SDS011;59968;51.084;16.748;2024-03-08T08:49:46;41.20;;;18.60;;
72095;SDS011;59968;51.084;16.748;2024-03-08T08:52:18;34.80;;;15.00;;
72095;SDS011;59968;51.084;16.748;2024-03-08T08:54:50;44.10;;;19.50;;
72095;SDS011;59968;51.084;16.748;2024-03-08T08:57:19;37.80;;;16.40;;
72095;SDS011;59968;51.084;16.748;2024-03-08T08:59:49;36.30;;;16.70;;
72095;SDS011;59968;51.084;16.748;2024-03-08T09:02:18;38.70;;;16.70;;
72095;SDS011;59968;51.084;16.748;2024-03-08T09:04:49;41.70;;;17.70;;
72095;SDS011;59968;51.084;16.748;2024-03-08T09:07:21;36.50;;;17.00;;
72095;SDS011;59968;51.084;16.748;2024-03-08T09:09:50;37.60;;;17.40;;
72095;SDS011;59968;51.084;16.748;2024-03-08T09:12:19;38.20;;;17.50;;
72095;SDS011;59968;51.084;16.748;2024-03-08T09:14:48;42.40;;;17.70;;
72095;SDS011;59968;51.084;16.748;2024-03-08T09:17:17;40.20;;;19.20;;
72095;SDS011;59968;51.084;16.748;2024-03-08T09:19:49;38.60;;;18.30;;
72095;SDS011;59968;51.084;16.748;2024-03-08T09:22:18;35.10;;;16.60;;
72095;SDS011;59968;51.084;16.748;2024-03-08T09:24:48;36.60;;;16.40;;
72095;SDS011;59968;51.084;16.748;2024-03-08T09:27:16;39.80;;;17.60;;
72095;SDS011;59968;51.084;16.748;2024-03-08T09:29:46;41.80;;;17.80;;
72095;SDS011;59968;51.084;16.748;2024-03-08T09:32:15;40.00;;;18.40;;
72095;SDS011;59968;51.084;16.748;2024-03-08T09:34:45;35.60;;;17.20;;
72095;SDS011;59968;51.084;16.748;2024-03-08T09:37:14;37.50;;;17.90;;
72095;SDS011;59968;51.084;16.748;2024-03-08T09:39:45;35.20;;;16.60;;
72095;SDS011;59968;51.084;16.748;2024-03-08T09:42:15;40.10;;;17.30;;
72095;SDS011;59968;51.084;16.748;2024-03-08T09:44:47;30.90;;;14.10;;
72095;SDS011;59968;51.084;16.748;2024-03-08T09:47:17;34.00;;;15.30;;
72095;SDS011;59968;51.084;16.748;2024-03-08T09:49:46;35.90;;;17.10;;
72095;SDS011;59968;51.084;16.748;2024-03-08T09:52:15;34.30;;;15.70;;
72095;SDS011;59968;51.084;16.748;2024-03-08T09:54:48;30.90;;;15.20;;
72095;SDS011;59968;51.084;16.748;2024-03-08T09:57:18;36.20;;;15.70;;
72095;SDS011;59968;51.084;16.748;2024-03-08T09:59:48;34.00;;;16.30;;
72095;SDS011;59968;51.084;16.748;2024-03-08T10:02:19;34.40;;;16.20;;
72095;SDS011;59968;51.084;16.748;2024-03-08T10:04:50;35.20;;;16.70;;
72095;SDS011;59968;51.084;16.748;2024-03-08T10:07:21;32.90;;;17.00;;
72095;SDS011;59968;51.084;16.748;2024-03-08T10:09:52;28.90;;;13.00;;
72095;SDS011;59968;51.084;16.748;2024-03-08T10:12:21;26.80;;;13.10;;
72095;SDS011;59968;51.084;16.748;2024-03-08T10:14:50;33.90;;;15.30;;
72095;SDS011;59968;51.084;16.748;2024-03-08T10:17:20;31.60;;;15.00;;
72095;SDS011;59968;51.084;16.748;2024-03-08T10:19:49;31.70;;;14.90;;
72095;SDS011;59968;51.084;16.748;2024-03-08T10:22:22;32.30;;;15.40;;
72095;SDS011;59968;51.084;16.748;2024-03-08T10:24:51;31.10;;;15.60;;
72095;SDS011;59968;51.084;16.748;2024-03-08T10:27:20;30.40;;;15.00;;
72095;SDS011;59968;51.084;16.748;2024-03-08T10:29:49;29.90;;;15.10;;
72095;SDS011;59968;51.084;16.748;2024-03-08T10:32:20;33.60;;;16.90;;
72095;SDS011;59968;51.084;16.748;2024-03-08T10:34:49;32.70;;;16.20;;
72095;SDS011;59968;51.084;16.748;2024-03-08T10:37:21;34.10;;;16.10;;
72095;SDS011;59968;51.084;16.748;2024-03-08T10:40:00;33.70;;;17.20;;
72095;SDS011;59968;51.084;16.748;2024-03-08T10:42:40;33.30;;;16.70;;
72095;SDS011;59968;51.084;16.748;2024-03-08T10:45:36;32.40;;;16.00;;
72095;SDS011;59968;51.084;16.748;2024-03-08T10:48:10;30.80;;;14.90;;
72095;SDS011;59968;51.084;16.748;2024-03-08T10:51:06;34.30;;;16.00;;
72095;SDS011;59968;51.084;16.748;2024-03-08T10:53:36;32.00;;;14.60;;
72095;SDS011;59968;51.084;16.748;2024-03-08T10:56:09;32.60;;;16.80;;
72095;SDS011;59968;51.084;16.748;2024-03-08T10:58:39;35.80;;;16.90;;
72095;SDS011;59968;51.084;16.748;2024-03-08T11:01:09;31.80;;;15.50;;
72095;SDS011;59968;51.084;16.748;2024-03-08T11:08:58;29.50;;;14.60;;
72095;SDS011;59968;51.084;16.748;2024-03-08T11:11:28;31.30;;;15.00;;
72095;SDS011;59968;51.084;16.748;2024-03-08T11:14:03;30.90;;;15.00;;
72095;SDS011;59968;51.084;16.748;2024-03-08T11:21:39;29.20;;;13.90;;
72095;SDS011;59968;51.084;16.748;2024-03-08T11:24:13;30.30;;;14.90;;
72095;SDS011;59968;51.084;16.748;2024-03-08T11:26:42;28.70;;;14.10;;
72095;SDS011;59968;51.084;16.748;2024-03-08T11:34:47;31.00;;;14.50;;
72095;SDS011;59968;51.084;16.748;2024-03-08T11:37:20;27.90;;;13.50;;
72095;SDS011;59968;51.084;16.748;2024-03-08T11:39:51;27.50;;;12.60;;
72095;SDS011;59968;51.084;16.748;2024-03-08T11:42:28;28.60;;;13.80;;
72095;SDS011;59968;51.084;16.748;2024-03-08T11:44:57;32.10;;;13.50;;
72095;SDS011;59968;51.084;16.748;2024-03-08T11:47:26;26.30;;;12.70;;
72095;SDS011;59968;51.084;16.748;2024-03-08T11:49:56;29.20;;;13.60;;
72095;SDS011;59968;51.084;16.748;2024-03-08T11:52:24;26.90;;;13.00;;
72095;SDS011;59968;51.084;16.748;2024-03-08T11:54:54;26.60;;;12.60;;
72095;SDS011;59968;51.084;16.748;2024-03-08T11:57:26;32.20;;;14.20;;
72095;SDS011;59968;51.084;16.748;2024-03-08T11:59:57;28.60;;;13.80;;
72095;SDS011;59968;51.084;16.748;2024-03-08T12:02:35;27.60;;;13.10;;
72095;SDS011;59968;51.084;16.748;2024-03-08T12:05:06;27.40;;;12.80;;
72095;SDS011;59968;51.084;16.748;2024-03-08T12:07:38;25.70;;;12.30;;
72095;SDS011;59968;51.084;16.748;2024-03-08T12:10:31;25.10;;;12.50;;
72095;SDS011;59968;51.084;16.748;2024-03-08T12:13:03;26.60;;;12.50;;
72095;SDS011;59968;51.084;16.748;2024-03-08T12:15:42;25.60;;;12.40;;
72095;SDS011;59968;51.084;16.748;2024-03-08T12:18:17;27.00;;;12.10;;
72095;SDS011;59968;51.084;16.748;2024-03-08T12:20:49;25.40;;;11.60;;
72095;SDS011;59968;51.084;16.748;2024-03-08T12:23:21;26.10;;;12.30;;
72095;SDS011;59968;51.084;16.748;2024-03-08T12:25:50;22.00;;;10.90;;
72095;SDS011;59968;51.084;16.748;2024-03-08T12:28:23;25.30;;;11.50;;
72095;SDS011;59968;51.084;16.748;2024-03-08T12:30:52;27.70;;;13.40;;
72095;SDS011;59968;51.084;16.748;2024-03-08T12:33:27;23.10;;;11.70;;
72095;SDS011;59968;51.084;16.748;2024-03-08T12:36:02;26.10;;;12.10;;
72095;SDS011;59968;51.084;16.748;2024-03-08T12:38:38;22.20;;;10.80;;
72095;SDS011;59968;51.084;16.748;2024-03-08T12:41:08;22.20;;;10.70;;
72095;SDS011;59968;51.084;16.748;2024-03-08T12:43:37;25.10;;;11.80;;
72095;SDS011;59968;51.084;16.748;2024-03-08T12:46:06;25.10;;;11.50;;
72095;SDS011;59968;51.084;16.748;2024-03-08T12:48:37;22.70;;;11.70;;
72095;SDS011;59968;51.084;16.748;2024-03-08T12:51:09;24.20;;;11.70;;
72095;SDS011;59968;51.084;16.748;2024-03-08T12:53:38;25.40;;;12.00;;
72095;SDS011;59968;51.084;16.748;2024-03-08T12:56:09;22.70;;;10.90;;
72095;SDS011;59968;51.084;16.748;2024-03-08T12:58:39;25.60;;;12.00;;
72095;SDS011;59968;51.084;16.748;2024-03-08T13:01:09;23.70;;;11.70;;
72095;SDS011;59968;51.084;16.748;2024-03-08T13:03:38;25.30;;;12.00;;
72095;SDS011;59968;51.084;16.748;2024-03-08T13:06:08;23.40;;;11.10;;
72095;SDS011;59968;51.084;16.748;2024-03-08T13:08:37;21.50;;;10.60;;
72095;SDS011;59968;51.084;16.748;2024-03-08T13:11:09;22.90;;;11.50;;
72095;SDS011;59968;51.084;16.748;2024-03-08T13:13:43;19.10;;;9.10;;
72095;SDS011;59968;51.084;16.748;2024-03-08T13:16:13;23.30;;;11.20;;
72095;SDS011;59968;51.084;16.748;2024-03-08T13:18:50;21.60;;;10.90;;
72095;SDS011;59968;51.084;16.748;2024-03-08T13:21:22;21.10;;;11.10;;
72095;SDS011;59968;51.084;16.748;2024-03-08T13:23:52;21.20;;;10.60;;
72095;SDS011;59968;51.084;16.748;2024-03-08T13:26:22;23.70;;;10.80;;
72095;SDS011;59968;51.084;16.748;2024-03-08T13:28:54;21.70;;;11.10;;
72095;SDS011;59968;51.084;16.748;2024-03-08T13:31:23;21.30;;;10.40;;
72095;SDS011;59968;51.084;16.748;2024-03-08T13:33:52;20.80;;;10.30;;
72095;SDS011;59968;51.084;16.748;2024-03-08T13:36:27;23.70;;;11.20;;
72095;SDS011;59968;51.084;16.748;2024-03-08T13:39:07;23.20;;;11.40;;
72095;SDS011;59968;51.084;16.748;2024-03-08T13:41:44;23.80;;;11.10;;
72095;SDS011;59968;51.084;16.748;2024-03-08T13:44:13;21.30;;;10.60;;
72095;SDS011;59968;51.084;16.748;2024-03-08T13:46:46;21.80;;;11.30;;
72095;SDS011;59968;51.084;16.748;2024-03-08T13:49:20;22.10;;;10.70;;
72095;SDS011;59968;51.084;16.748;2024-03-08T13:51:49;21.80;;;10.90;;
72095;SDS011;59968;51.084;16.748;2024-03-08T13:54:18;20.70;;;10.50;;
72095;SDS011;59968;51.084;16.748;2024-03-08T13:56:47;18.80;;;9.20;;
72095;SDS011;59968;51.084;16.748;2024-03-08T13:59:18;20.50;;;10.50;;
72095;SDS011;59968;51.084;16.748;2024-03-08T14:01:47;18.50;;;9.40;;
72095;SDS011;59968;51.084;16.748;2024-03-08T14:04:17;20.00;;;9.90;;
72095;SDS011;59968;51.084;16.748;2024-03-08T14:06:46;16.40;;;8.40;;
72095;SDS011;59968;51.084;16.748;2024-03-08T14:09:17;22.10;;;10.40;;
72095;SDS011;59968;51.084;16.748;2024-03-08T14:11:47;17.80;;;9.40;;
72095;SDS011;59968;51.084;16.748;2024-03-08T14:14:16;20.10;;;10.30;;
72095;SDS011;59968;51.084;16.748;2024-03-08T14:16:46;19.00;;;10.00;;
72095;SDS011;59968;51.084;16.748;2024-03-08T14:19:16;19.60;;;9.60;;
72095;SDS011;59968;51.084;16.748;2024-03-08T14:21:46;17.80;;;8.90;;
72095;SDS011;59968;51.084;16.748;2024-03-08T14:24:20;17.80;;;9.20;;
72095;SDS011;59968;51.084;16.748;2024-03-08T14:26:48;17.40;;;9.20;;
72095;SDS011;59968;51.084;16.748;2024-03-08T14:29:17;19.00;;;9.10;;
72095;SDS011;59968;51.084;16.748;2024-03-08T14:31:47;18.00;;;9.50;;
72095;SDS011;59968;51.084;16.748;2024-03-08T14:34:16;17.80;;;9.20;;
72095;SDS011;59968;51.084;16.748;2024-03-08T14:36:45;20.30;;;9.90;;
72095;SDS011;59968;51.084;16.748;2024-03-08T14:39:15;20.00;;;9.40;;
72095;SDS011;59968;51.084;16.748;2024-03-08T14:41:44;19.80;;;9.70;;
72095;SDS011;59968;51.084;16.748;2024-03-08T14:44:13;17.90;;;9.80;;
72095;SDS011;59968;51.084;16.748;2024-03-08T14:46:42;21.40;;;10.50;;
72095;SDS011;59968;51.084;16.748;2024-03-08T14:49:12;21.50;;;10.00;;